createdAt,value
2019-03-03T00:00:41.575Z,3.08
2019-03-03T00:03:10.318Z,2.99
2019-03-03T00:05:39.085Z,2.89
2019-03-03T00:08:07.822Z,2.91
2019-03-03T00:10:36.603Z,2.88
2019-03-03T00:13:05.763Z,2.91
2019-03-03T00:15:34.573Z,2.98
2019-03-03T00:18:03.643Z,3.02
2019-03-03T00:20:32.659Z,3.01
2019-03-03T00:23:01.400Z,3.01
2019-03-03T00:25:30.166Z,2.94
2019-03-03T00:27:58.900Z,2.84
2019-03-03T00:30:27.783Z,2.87
2019-03-03T00:32:56.593Z,2.89
2019-03-03T00:35:25.364Z,2.95
2019-03-03T00:38:14.135Z,2.95
2019-03-03T00:41:00.640Z,3.01
2019-03-03T00:43:30.930Z,3.06
2019-03-03T00:46:13.378Z,3.05
2019-03-03T00:48:43.704Z,3.09
2019-03-03T00:51:29.260Z,3.13
2019-03-03T00:53:59.573Z,3.13
2019-03-03T00:56:29.945Z,3.07
2019-03-03T00:59:00.249Z,3.06
2019-03-03T01:01:30.558Z,3.18
2019-03-03T01:04:12.964Z,3.15
2019-03-03T01:06:46.030Z,3.13
2019-03-03T01:09:40.941Z,3.12
2019-03-03T01:12:14.338Z,3.19
2019-03-03T01:14:53.387Z,3.06
2019-03-03T01:17:26.469Z,3.16
2019-03-03T01:20:08.925Z,3.15
2019-03-03T01:22:39.248Z,3.12
2019-03-03T01:25:08.499Z,3.06
2019-03-03T01:27:37.364Z,3.08
2019-03-03T01:30:11.663Z,3.02
2019-03-03T01:32:40.408Z,2.94
2019-03-03T01:35:11.169Z,3.01
2019-03-03T01:37:39.949Z,3.10
2019-03-03T01:40:11.059Z,3.11
2019-03-03T01:42:39.801Z,3.12
2019-03-03T01:45:15.743Z,3.10
2019-03-03T01:47:44.489Z,3.09
2019-03-03T01:50:14.243Z,3.08
2019-03-03T01:52:43.462Z,3.06
2019-03-03T01:55:13.237Z,3.06
2019-03-03T01:57:41.964Z,3.07
2019-03-03T02:00:22.240Z,3.08
2019-03-03T02:02:50.978Z,2.95
2019-03-03T02:05:19.718Z,3.01
2019-03-03T02:07:48.494Z,2.95
2019-03-03T02:10:19.475Z,2.90
2019-03-03T02:12:48.238Z,2.93
2019-03-03T02:15:16.984Z,2.99
2019-03-03T02:17:46.039Z,3.06
2019-03-03T02:20:14.793Z,3.11
2019-03-03T02:22:43.864Z,3.11
2019-03-03T02:25:14.386Z,3.15
2019-03-03T02:27:43.444Z,3.07
2019-03-03T02:30:17.545Z,2.98
2019-03-03T02:32:46.380Z,3.13
2019-03-03T02:35:15.661Z,3.06
2019-03-03T02:37:44.404Z,3.01
2019-03-03T02:40:16.010Z,3.06
2019-03-03T02:42:44.798Z,2.93
2019-03-03T02:45:16.036Z,3.14
2019-03-03T02:47:44.772Z,3.24
2019-03-03T02:50:16.960Z,3.22
2019-03-03T02:52:45.899Z,3.19
2019-03-03T02:55:16.903Z,3.18
2019-03-03T02:57:45.634Z,3.20
2019-03-03T03:00:26.749Z,3.28
2019-03-03T03:03:00.098Z,3.29
2019-03-03T03:05:36.421Z,3.28
2019-03-03T03:08:06.737Z,3.35
2019-03-03T03:10:40.821Z,3.39
2019-03-03T03:13:17.093Z,3.39
2019-03-03T03:15:53.458Z,3.40
2019-03-03T03:18:26.761Z,3.36
2019-03-03T03:20:59.873Z,3.36
2019-03-03T03:23:30.187Z,3.34
2019-03-03T03:26:03.491Z,3.35
2019-03-03T03:28:36.766Z,3.33
2019-03-03T03:31:07.086Z,3.34
2019-03-03T03:33:37.643Z,3.33
2019-03-03T03:36:10.837Z,3.40
2019-03-03T03:38:57.654Z,3.51
2019-03-03T03:41:43.214Z,3.60
2019-03-03T03:44:19.485Z,3.65
2019-03-03T03:46:49.813Z,3.69
2019-03-03T03:49:26.138Z,3.66
2019-03-03T03:52:02.506Z,3.67
2019-03-03T03:54:47.845Z,3.68
2019-03-03T03:57:34.002Z,3.62
2019-03-03T04:00:07.391Z,3.59
2019-03-03T04:02:43.757Z,3.56
2019-03-03T04:05:29.005Z,3.59
2019-03-03T04:08:10.092Z,3.61
2019-03-03T04:10:40.419Z,3.54
2019-03-03T04:13:10.814Z,3.53
2019-03-03T04:15:46.558Z,3.55
2019-03-03T04:18:31.899Z,3.57
2019-03-03T04:21:08.175Z,3.59
2019-03-03T04:23:48.187Z,3.58
2019-03-03T04:26:27.939Z,3.57
2019-03-03T04:28:58.278Z,3.62
2019-03-03T04:31:28.590Z,3.66
2019-03-03T04:33:58.914Z,3.65
2019-03-03T04:36:29.224Z,3.67
2019-03-03T04:39:15.008Z,3.72
2019-03-03T04:41:45.328Z,3.68
2019-03-03T04:44:32.121Z,3.65
2019-03-03T04:47:08.805Z,3.66
2019-03-03T04:49:39.119Z,3.73
2019-03-03T04:52:12.458Z,3.69
2019-03-03T04:54:51.784Z,3.75
2019-03-03T04:57:37.645Z,3.78
2019-03-03T05:00:27.198Z,3.78
2019-03-03T05:03:13.959Z,3.78
2019-03-03T05:06:00.582Z,3.80
2019-03-03T05:08:30.919Z,3.79
2019-03-03T05:11:01.234Z,3.78
2019-03-03T05:13:31.595Z,3.87
2019-03-03T05:16:13.808Z,3.86
2019-03-03T05:18:44.165Z,3.87
2019-03-03T05:21:12.924Z,3.93
2019-03-03T05:23:41.660Z,4.00
2019-03-03T05:26:10.718Z,4.09
2019-03-03T05:28:39.459Z,4.14
2019-03-03T05:31:08.565Z,4.21
2019-03-03T05:33:37.299Z,4.16
2019-03-03T05:36:06.059Z,4.09
2019-03-03T05:38:34.810Z,4.07
2019-03-03T05:41:03.599Z,4.07
2019-03-03T05:43:32.334Z,4.03
2019-03-03T05:46:01.077Z,4.07
2019-03-03T05:48:30.073Z,4.07
2019-03-03T05:50:58.815Z,4.06
2019-03-03T05:53:29.243Z,4.07
2019-03-03T05:55:57.985Z,4.21
2019-03-03T05:58:28.500Z,4.26
2019-03-03T06:00:57.239Z,4.24
2019-03-03T06:03:26.003Z,4.29
2019-03-03T06:05:54.745Z,4.30
2019-03-03T06:08:23.503Z,4.32
2019-03-03T06:10:52.243Z,4.34
2019-03-03T06:13:21.604Z,4.33
2019-03-03T06:15:50.353Z,4.31
2019-03-03T06:18:19.143Z,4.36
2019-03-03T06:20:47.858Z,4.36
2019-03-03T06:23:16.658Z,4.39
2019-03-03T06:25:45.403Z,4.47
2019-03-03T06:28:14.144Z,4.52
2019-03-03T06:30:43.257Z,4.53
2019-03-03T06:33:11.973Z,4.56
2019-03-03T06:35:40.760Z,4.54
2019-03-03T06:38:09.499Z,4.57
2019-03-03T06:40:38.263Z,4.63
2019-03-03T06:43:06.994Z,4.62
2019-03-03T06:45:35.764Z,4.61
2019-03-03T06:48:04.847Z,4.67
2019-03-03T06:50:33.619Z,4.75
2019-03-03T06:53:02.360Z,4.73
2019-03-03T06:55:31.136Z,4.73
2019-03-03T06:57:59.879Z,4.79
2019-03-03T07:00:28.609Z,4.85
2019-03-03T07:02:58.653Z,4.89
2019-03-03T07:05:27.403Z,4.94
2019-03-03T07:08:00.544Z,5.01
2019-03-03T07:10:29.312Z,5.04
2019-03-03T07:12:58.187Z,5.02
2019-03-03T07:15:26.923Z,5.05
2019-03-03T07:17:55.694Z,5.06
2019-03-03T07:20:24.436Z,5.08
2019-03-03T07:22:53.493Z,5.04
2019-03-03T07:25:22.248Z,5.08
2019-03-03T07:27:52.360Z,5.11
2019-03-03T07:30:21.118Z,5.08
2019-03-03T07:32:54.790Z,5.16
2019-03-03T07:35:23.871Z,5.13
2019-03-03T07:37:55.496Z,5.16
2019-03-03T07:40:24.233Z,5.18
2019-03-03T07:42:53.003Z,5.18
2019-03-03T07:45:21.742Z,5.18
2019-03-03T07:47:50.500Z,5.25
2019-03-03T07:50:19.263Z,5.29
2019-03-03T07:52:48.349Z,5.31
2019-03-03T07:55:17.435Z,5.41
2019-03-03T07:57:46.925Z,5.47
2019-03-03T08:00:17.439Z,5.54
2019-03-03T08:02:46.179Z,5.68
2019-03-03T08:05:14.963Z,5.80
2019-03-03T08:07:43.704Z,5.98
2019-03-03T08:10:13.872Z,6.17
2019-03-03T08:12:42.628Z,6.36
2019-03-03T08:15:14.686Z,6.44
2019-03-03T08:17:43.446Z,6.53
2019-03-03T08:20:14.024Z,6.55
2019-03-03T08:22:42.770Z,6.76
2019-03-03T08:25:12.799Z,6.89
2019-03-03T08:27:42.115Z,6.99
2019-03-03T08:30:13.069Z,7.03
2019-03-03T08:32:41.864Z,7.05
2019-03-03T08:35:24.856Z,7.08
2019-03-03T08:37:53.619Z,7.26
2019-03-03T08:40:22.364Z,7.33
2019-03-03T08:42:55.453Z,7.37
2019-03-03T08:45:31.833Z,7.49
2019-03-03T08:48:02.174Z,7.60
2019-03-03T08:50:47.935Z,7.64
2019-03-03T08:53:30.830Z,7.80
2019-03-03T08:56:01.153Z,7.86
2019-03-03T08:58:34.243Z,7.83
2019-03-03T09:01:07.269Z,8.06
2019-03-03T09:03:40.610Z,8.18
2019-03-03T09:06:23.178Z,8.46
2019-03-03T09:08:59.570Z,8.69
2019-03-03T09:11:38.943Z,8.80
2019-03-03T09:14:12.052Z,8.89
2019-03-03T09:16:51.435Z,9.13
2019-03-03T09:19:21.794Z,9.49
2019-03-03T09:22:04.739Z,9.66
2019-03-03T09:24:47.266Z,10.03
2019-03-03T09:27:34.085Z,10.61
2019-03-03T09:30:21.089Z,11.18
2019-03-03T09:33:07.666Z,10.59
2019-03-03T09:35:44.376Z,10.27
2019-03-03T09:38:14.629Z,10.08
2019-03-03T09:40:44.978Z,9.97
2019-03-03T09:43:21.280Z,10.01
2019-03-03T09:46:06.758Z,9.88
2019-03-03T09:48:54.077Z,10.01
2019-03-03T09:51:41.091Z,10.09
2019-03-03T09:54:20.442Z,10.24
2019-03-03T09:56:50.786Z,10.49
2019-03-03T09:59:21.280Z,10.65
2019-03-03T10:02:03.951Z,11.45
2019-03-03T10:04:34.624Z,11.64
2019-03-03T10:07:17.973Z,11.61
2019-03-03T10:10:03.646Z,11.31
2019-03-03T10:12:40.264Z,11.69
2019-03-03T10:15:29.563Z,11.72
2019-03-03T10:18:16.287Z,11.90
2019-03-03T10:20:46.611Z,11.90
2019-03-03T10:23:16.963Z,11.84
2019-03-03T10:25:56.759Z,11.64
2019-03-03T10:28:27.109Z,11.20
2019-03-03T10:31:08.525Z,10.82
2019-03-03T10:33:44.916Z,10.42
2019-03-03T10:36:33.981Z,10.14
2019-03-03T10:39:13.396Z,9.89
2019-03-03T10:41:44.979Z,9.91
2019-03-03T10:44:15.340Z,9.91
2019-03-03T10:47:03.903Z,9.94
2019-03-03T10:49:37.158Z,10.13
2019-03-03T10:52:07.663Z,10.77
2019-03-03T10:54:40.768Z,11.55
2019-03-03T10:57:20.297Z,11.54
2019-03-03T11:00:05.690Z,11.48
2019-03-03T11:02:47.918Z,11.58
2019-03-03T11:05:21.253Z,11.53
2019-03-03T11:08:06.960Z,11.71
2019-03-03T11:10:43.824Z,11.71
2019-03-03T11:13:20.130Z,11.63
2019-03-03T11:16:02.790Z,11.73
2019-03-03T11:18:41.970Z,11.94
2019-03-03T11:21:12.324Z,11.83
2019-03-03T11:23:48.480Z,12.10
2019-03-03T11:26:21.941Z,11.92
2019-03-03T11:28:58.504Z,11.79
2019-03-03T11:31:47.569Z,11.65
2019-03-03T11:34:24.288Z,11.82
2019-03-03T11:36:57.340Z,12.05
2019-03-03T11:39:39.757Z,12.20
2019-03-03T11:42:16.052Z,12.61
2019-03-03T11:45:01.519Z,12.71
2019-03-03T11:47:47.249Z,12.68
2019-03-03T11:50:20.454Z,12.73
2019-03-03T11:52:59.838Z,12.66
2019-03-03T11:55:30.159Z,12.60
2019-03-03T11:58:13.099Z,12.42
2019-03-03T12:00:58.545Z,12.20
2019-03-03T12:03:44.024Z,11.96
2019-03-03T12:06:17.455Z,11.72
2019-03-03T12:08:56.954Z,11.66
2019-03-03T12:11:27.272Z,11.81
2019-03-03T12:14:00.996Z,11.72
2019-03-03T12:16:46.543Z,11.69
2019-03-03T12:19:33.150Z,12.01
2019-03-03T12:22:03.475Z,12.57
2019-03-03T12:24:42.692Z,12.96
2019-03-03T12:27:16.452Z,13.12
2019-03-03T12:29:46.775Z,13.16
2019-03-03T12:32:17.190Z,13.13
2019-03-03T12:34:56.678Z,12.95
2019-03-03T12:37:36.000Z,12.85
2019-03-03T12:40:11.711Z,12.85
2019-03-03T12:43:00.220Z,12.83
2019-03-03T12:45:31.060Z,12.64
2019-03-03T12:48:01.411Z,12.12
2019-03-03T12:50:40.923Z,11.89
2019-03-03T12:53:27.418Z,11.86
2019-03-03T12:56:09.749Z,11.80
2019-03-03T12:58:48.920Z,11.68
2019-03-03T13:01:23.740Z,11.72
2019-03-03T13:04:06.569Z,11.97
2019-03-03T13:06:37.020Z,12.03
2019-03-03T13:09:10.979Z,12.13
2019-03-03T13:11:47.777Z,12.25
2019-03-03T13:14:24.358Z,12.34
2019-03-03T13:16:56.056Z,12.40
2019-03-03T13:19:26.680Z,12.40
2019-03-03T13:22:05.758Z,12.36
2019-03-03T13:24:36.078Z,12.26
2019-03-03T13:27:13.057Z,12.47
2019-03-03T13:30:02.160Z,12.35
2019-03-03T13:32:32.519Z,12.29
2019-03-03T13:35:05.480Z,12.18
2019-03-03T13:37:39.393Z,12.13
2019-03-03T13:40:13.863Z,12.11
2019-03-03T13:42:44.219Z,11.98
2019-03-03T13:45:13.958Z,12.00
2019-03-03T13:47:42.860Z,11.88
2019-03-03T13:50:14.918Z,11.86
2019-03-03T13:52:44.702Z,11.81
2019-03-03T13:55:15.060Z,11.82
2019-03-03T13:57:43.941Z,11.88
2019-03-03T14:00:22.000Z,11.87
2019-03-03T14:02:53.253Z,11.79
2019-03-03T14:05:23.541Z,11.78
2019-03-03T14:07:52.740Z,11.75
2019-03-03T14:10:21.778Z,11.64
2019-03-03T14:12:51.058Z,11.64
2019-03-03T14:15:20.599Z,11.58
2019-03-03T14:17:49.517Z,11.66
2019-03-03T14:20:23.185Z,11.66
2019-03-03T14:22:53.682Z,11.78
2019-03-03T14:25:23.158Z,11.77
2019-03-03T14:27:52.038Z,11.81
2019-03-03T14:30:23.491Z,11.72
2019-03-03T14:32:52.297Z,11.60
2019-03-03T14:35:22.597Z,11.68
2019-03-03T14:37:57.740Z,11.62
2019-03-03T14:40:26.659Z,11.60
2019-03-03T14:42:55.697Z,11.63
2019-03-03T14:45:28.159Z,11.38
2019-03-03T14:47:57.797Z,11.44
2019-03-03T14:50:26.577Z,11.39
2019-03-03T14:52:57.426Z,11.30
2019-03-03T14:55:26.618Z,11.27
2019-03-03T14:57:55.378Z,11.26
2019-03-03T15:00:30.458Z,11.20
2019-03-03T15:03:03.827Z,11.26
2019-03-03T15:05:33.920Z,11.29
2019-03-03T15:08:03.966Z,11.20
2019-03-03T15:10:32.762Z,11.19
2019-03-03T15:13:04.158Z,11.30
2019-03-03T15:15:38.060Z,11.26
2019-03-03T15:18:06.454Z,11.22
2019-03-03T15:20:35.717Z,11.20
2019-03-03T15:23:04.778Z,11.11
2019-03-03T15:25:34.837Z,11.19
2019-03-03T15:28:03.818Z,11.17
2019-03-03T15:30:32.678Z,11.21
2019-03-03T15:33:01.458Z,11.21
2019-03-03T15:35:32.019Z,11.13
2019-03-03T15:38:00.997Z,11.14
2019-03-03T15:40:30.660Z,11.05
2019-03-03T15:42:59.540Z,11.01
2019-03-03T15:45:29.886Z,11.01
2019-03-03T15:47:58.741Z,10.87
2019-03-03T15:50:27.857Z,10.94
2019-03-03T15:52:56.858Z,10.86
2019-03-03T15:55:27.802Z,10.90
2019-03-03T15:57:56.589Z,10.87
2019-03-03T16:00:36.760Z,10.86
2019-03-03T16:03:06.457Z,10.88
2019-03-03T16:05:35.319Z,10.81
2019-03-03T16:08:05.458Z,10.82
2019-03-03T16:10:34.238Z,10.70
2019-03-03T16:13:05.139Z,10.56
2019-03-03T16:15:34.059Z,10.53
2019-03-03T16:18:04.959Z,10.54
2019-03-03T16:20:34.023Z,10.50
2019-03-03T16:23:02.798Z,10.46
2019-03-03T16:25:31.698Z,10.40
2019-03-03T16:28:00.560Z,10.34
2019-03-03T16:30:29.438Z,10.33
2019-03-03T16:32:58.798Z,10.30
2019-03-03T16:35:30.279Z,10.23
2019-03-03T16:37:59.397Z,10.22
2019-03-03T16:40:28.481Z,10.22
2019-03-03T16:42:57.237Z,10.21
2019-03-03T16:45:26.183Z,10.18
2019-03-03T16:47:55.077Z,10.20
2019-03-03T16:50:24.917Z,10.21
2019-03-03T16:52:53.797Z,10.12
2019-03-03T16:55:25.038Z,10.14
2019-03-03T16:57:56.779Z,10.24
2019-03-03T17:00:29.538Z,10.11
2019-03-03T17:02:58.437Z,10.20
2019-03-03T17:05:29.562Z,10.19
2019-03-03T17:07:58.389Z,10.18
2019-03-03T17:10:27.301Z,10.18
2019-03-03T17:12:56.073Z,10.09
2019-03-03T17:15:26.550Z,10.20
2019-03-03T17:17:55.375Z,10.16
2019-03-03T17:20:24.218Z,10.25
2019-03-03T17:22:52.977Z,10.29
2019-03-03T17:25:27.418Z,10.33
2019-03-03T17:27:56.271Z,10.37
2019-03-03T17:30:26.538Z,10.36
2019-03-03T17:32:55.384Z,10.38
2019-03-03T17:35:24.357Z,10.38
2019-03-03T17:37:53.618Z,10.37
2019-03-03T17:40:24.839Z,10.31
2019-03-03T17:42:53.879Z,10.26
2019-03-03T17:45:23.959Z,10.25
2019-03-03T17:47:53.140Z,10.35
2019-03-03T17:50:26.708Z,10.30
2019-03-03T17:52:56.088Z,10.30
2019-03-03T17:55:24.877Z,10.31
2019-03-03T17:57:54.638Z,10.33
2019-03-03T18:00:29.181Z,10.26
2019-03-03T18:02:58.658Z,10.30
2019-03-03T18:05:27.678Z,10.31
2019-03-03T18:07:56.859Z,10.38
2019-03-03T18:10:25.997Z,10.21
2019-03-03T18:12:54.799Z,10.23
2019-03-03T18:15:23.671Z,10.25
2019-03-03T18:17:52.638Z,10.26
2019-03-03T18:20:22.678Z,10.23
2019-03-03T18:22:51.478Z,10.26
2019-03-03T18:25:23.578Z,10.12
2019-03-03T18:27:52.600Z,10.20
2019-03-03T18:30:26.198Z,10.33
2019-03-03T18:32:55.421Z,10.37
2019-03-03T18:35:24.801Z,10.33
2019-03-03T18:37:54.318Z,10.41
2019-03-03T18:40:27.181Z,10.43
2019-03-03T18:42:56.398Z,10.42
2019-03-03T18:45:25.798Z,10.34
2019-03-03T18:47:56.238Z,10.28
2019-03-03T18:50:26.657Z,10.41
2019-03-03T18:52:56.642Z,10.30
2019-03-03T18:55:26.822Z,10.33
2019-03-03T18:57:55.680Z,10.41
2019-03-03T19:00:32.321Z,10.39
2019-03-03T19:03:02.162Z,10.44
2019-03-03T19:05:34.398Z,10.36
2019-03-03T19:08:03.498Z,10.36
2019-03-03T19:10:37.910Z,10.54
2019-03-03T19:13:06.838Z,10.46
2019-03-03T19:15:35.998Z,10.48
2019-03-03T19:18:05.407Z,10.41
2019-03-03T19:20:34.211Z,10.34
2019-03-03T19:23:03.018Z,10.38
2019-03-03T19:25:31.818Z,10.26
2019-03-03T19:28:00.639Z,10.33
2019-03-03T19:30:31.006Z,10.21
2019-03-03T19:33:12.067Z,10.22
2019-03-03T19:35:41.459Z,10.25
2019-03-03T19:38:10.660Z,10.24
2019-03-03T19:40:39.579Z,10.27
2019-03-03T19:43:08.879Z,10.30
2019-03-03T19:45:46.962Z,10.24
2019-03-03T19:48:16.058Z,10.28
2019-03-03T19:50:45.738Z,10.27
2019-03-03T19:53:15.018Z,10.18
2019-03-03T19:55:44.950Z,10.13
2019-03-03T19:58:13.858Z,10.22
2019-03-03T20:00:43.951Z,10.07
2019-03-03T20:03:13.639Z,9.92
2019-03-03T20:05:42.702Z,9.73
2019-03-03T20:08:13.130Z,9.76
2019-03-03T20:10:42.458Z,9.63
2019-03-03T20:13:11.678Z,9.76
2019-03-03T20:15:40.478Z,9.77
2019-03-03T20:18:10.657Z,9.79
2019-03-03T20:20:40.059Z,9.75
2019-03-03T20:23:09.338Z,9.70
2019-03-03T20:25:47.498Z,9.72
2019-03-03T20:28:16.397Z,9.76
2019-03-03T20:30:45.838Z,9.86
2019-03-03T20:33:14.879Z,10.02
2019-03-03T20:35:43.618Z,10.05
2019-03-03T20:38:12.439Z,9.93
2019-03-03T20:40:41.188Z,9.97
2019-03-03T20:43:10.018Z,9.89
2019-03-03T20:45:38.983Z,9.88
2019-03-03T20:48:07.844Z,9.77
2019-03-03T20:50:36.731Z,9.77
2019-03-03T20:53:05.465Z,9.82
2019-03-03T20:55:34.358Z,9.77
2019-03-03T20:58:03.099Z,9.84
2019-03-03T21:00:33.178Z,9.81
2019-03-03T21:03:03.397Z,9.76
2019-03-03T21:05:32.269Z,9.77
2019-03-03T21:08:01.019Z,9.69
2019-03-03T21:10:31.192Z,9.69
2019-03-03T21:12:59.991Z,9.59
2019-03-03T21:15:29.219Z,9.75
2019-03-03T21:17:58.039Z,9.83
2019-03-03T21:20:26.818Z,9.83
2019-03-03T21:22:55.762Z,9.78
2019-03-03T21:25:24.519Z,9.82
2019-03-03T21:27:53.301Z,9.89
2019-03-03T21:30:27.219Z,9.91
2019-03-03T21:32:55.419Z,9.88
2019-03-03T21:35:24.263Z,9.90
2019-03-03T21:37:53.163Z,9.84
2019-03-03T21:40:26.781Z,9.80
2019-03-03T21:42:55.608Z,9.83
2019-03-03T21:45:31.859Z,9.82
2019-03-03T21:48:00.699Z,9.76
2019-03-03T21:50:30.818Z,9.75
2019-03-03T21:52:59.700Z,9.74
2019-03-03T21:55:28.746Z,9.78
2019-03-03T21:57:57.518Z,9.75
2019-03-03T22:00:34.707Z,9.74
2019-03-03T22:03:03.486Z,9.83
2019-03-03T22:05:32.258Z,9.81
2019-03-03T22:08:01.039Z,9.73
2019-03-03T22:10:30.183Z,9.71
2019-03-03T22:13:04.480Z,9.89
2019-03-03T22:15:33.661Z,9.97
2019-03-03T22:18:02.739Z,9.90
2019-03-03T22:20:31.460Z,9.86
2019-03-03T22:23:01.623Z,9.83
2019-03-03T22:25:30.679Z,9.86
2019-03-03T22:27:59.458Z,9.87
2019-03-03T22:30:28.218Z,9.99
2019-03-03T22:32:56.981Z,9.91
2019-03-03T22:35:25.758Z,9.97
2019-03-03T22:37:54.550Z,9.95
2019-03-03T22:40:24.860Z,9.94
2019-03-03T22:42:53.638Z,9.98
2019-03-03T22:45:23.717Z,10.01
2019-03-03T22:47:52.433Z,9.96
2019-03-03T22:50:22.340Z,9.97
2019-03-03T22:52:51.480Z,9.89
2019-03-03T22:55:21.577Z,9.81
2019-03-03T22:57:50.370Z,9.83
2019-03-03T23:00:44.700Z,9.94
2019-03-03T23:03:16.339Z,9.80
2019-03-03T23:06:09.059Z,9.89
2019-03-03T23:09:04.998Z,9.90
2019-03-03T23:11:42.298Z,9.86
2019-03-03T23:14:38.458Z,9.77
2019-03-03T23:17:22.265Z,9.79
2019-03-03T23:20:08.819Z,9.71
2019-03-03T23:22:55.561Z,9.80
2019-03-03T23:25:48.240Z,9.78
2019-03-03T23:28:17.318Z,9.75
2019-03-03T23:30:48.606Z,9.82
2019-03-03T23:33:20.219Z,9.79
2019-03-03T23:35:48.979Z,9.80
2019-03-03T23:38:17.703Z,9.91
2019-03-03T23:40:46.760Z,9.76
2019-03-03T23:43:15.518Z,9.75
2019-03-03T23:45:44.599Z,9.77
2019-03-03T23:48:13.360Z,9.81
2019-03-03T23:50:42.137Z,9.83
2019-03-03T23:53:10.858Z,9.93
2019-03-03T23:55:39.638Z,9.94
2019-03-03T23:58:08.418Z,9.87
